createdAt,value
2023-04-09T00:00:49.577Z,101131.86
2023-04-09T00:03:40.764Z,101130.06
2023-04-09T00:06:15.184Z,101133.00
2023-04-09T00:08:48.806Z,101134.12
2023-04-09T00:11:22.422Z,101129.69
2023-04-09T00:13:55.864Z,101132.16
2023-04-09T00:16:29.473Z,101138.28
2023-04-09T00:19:03.185Z,101139.56
2023-04-09T00:21:37.603Z,101148.84
2023-04-09T00:24:11.617Z,101141.05
2023-04-09T00:26:45.062Z,101143.70
2023-04-09T00:29:19.055Z,101144.67
2023-04-09T00:31:52.465Z,101144.67
2023-04-09T00:34:26.626Z,101140.38
2023-04-09T00:37:00.252Z,101143.02
2023-04-09T00:39:33.689Z,101139.86
2023-04-09T00:42:07.422Z,101132.92
2023-04-09T00:44:40.731Z,101139.99
2023-04-09T00:47:14.625Z,101139.18
2023-04-09T00:49:48.377Z,101139.48
2023-04-09T00:52:21.603Z,101137.81
2023-04-09T00:54:56.563Z,101137.81
2023-04-09T00:57:30.239Z,101134.33
2023-04-09T01:00:04.711Z,101142.41
2023-04-09T01:02:38.687Z,101141.73
2023-04-09T01:05:13.982Z,101142.13
2023-04-09T01:08:03.508Z,101141.31
2023-04-09T01:10:44.092Z,101145.91
2023-04-09T01:13:21.314Z,101138.29
2023-04-09T01:15:57.984Z,101137.61
2023-04-09T01:18:37.731Z,101134.97
2023-04-09T01:21:19.148Z,101141.22
2023-04-09T01:24:00.548Z,101140.38
2023-04-09T01:27:00.146Z,101137.90
2023-04-09T01:29:52.997Z,101144.29
2023-04-09T01:32:27.863Z,101144.29
2023-04-09T01:35:02.835Z,101141.81
2023-04-09T01:37:37.319Z,101141.13
2023-04-09T01:40:12.930Z,101142.23
2023-04-09T01:42:47.568Z,101146.02
2023-04-09T01:45:22.355Z,101140.05
2023-04-09T01:47:57.173Z,101135.07
2023-04-09T01:50:31.122Z,101135.36
2023-04-09T01:53:05.378Z,101134.39
2023-04-09T01:55:38.704Z,101133.83
2023-04-09T01:58:13.410Z,101133.31
2023-04-09T02:00:49.962Z,101132.63
2023-04-09T02:03:28.514Z,101127.64
2023-04-09T02:06:16.056Z,101129.59
2023-04-09T02:08:52.307Z,101124.45
2023-04-09T02:11:28.476Z,101132.52
2023-04-09T02:14:03.147Z,101129.20
2023-04-09T02:16:38.036Z,101124.05
2023-04-09T02:19:12.116Z,101125.88
2023-04-09T02:21:45.488Z,101121.71
2023-04-09T02:24:19.179Z,101122.69
2023-04-09T02:26:52.744Z,101126.30
2023-04-09T02:29:26.470Z,101126.59
2023-04-09T02:31:59.989Z,101122.58
2023-04-09T02:34:33.100Z,101127.16
2023-04-09T02:37:07.732Z,101134.38
2023-04-09T02:39:41.175Z,101137.31
2023-04-09T02:42:14.506Z,101131.19
2023-04-09T02:44:48.107Z,101136.46
2023-04-09T02:47:22.135Z,101131.34
2023-04-09T02:49:56.397Z,101136.62
2023-04-09T02:52:29.936Z,101138.28
2023-04-09T02:55:04.239Z,101138.57
2023-04-09T02:57:37.947Z,101134.96
2023-04-09T03:00:14.375Z,101141.89
2023-04-09T03:02:48.150Z,101134.96
2023-04-09T03:05:21.819Z,101130.50
2023-04-09T03:07:55.825Z,101128.84
2023-04-09T03:10:30.532Z,101130.66
2023-04-09T03:13:03.851Z,101136.91
2023-04-09T03:15:37.318Z,101131.64
2023-04-09T03:18:10.887Z,101128.84
2023-04-09T03:20:44.439Z,101133.42
2023-04-09T03:23:18.649Z,101134.41
2023-04-09T03:26:03.508Z,101134.56
2023-04-09T03:28:39.984Z,101138.17
2023-04-09T03:31:14.330Z,101131.08
2023-04-09T03:33:49.035Z,101133.71
2023-04-09T03:36:22.421Z,101132.73
2023-04-09T03:39:19.171Z,101137.03
2023-04-09T03:41:53.587Z,101129.97
2023-04-09T03:44:27.031Z,101131.64
2023-04-09T03:47:20.607Z,101133.30
2023-04-09T03:49:54.856Z,101140.23
2023-04-09T03:52:32.146Z,101139.26
2023-04-09T03:55:13.422Z,101144.38
2023-04-09T03:57:47.386Z,101145.06
2023-04-09T04:00:22.995Z,101146.75
2023-04-09T04:03:21.402Z,101140.63
2023-04-09T04:06:13.177Z,101137.87
2023-04-09T04:08:59.883Z,101149.23
2023-04-09T04:11:41.351Z,101145.62
2023-04-09T04:14:15.075Z,101148.94
2023-04-09T04:16:49.829Z,101150.47
2023-04-09T04:19:25.166Z,101155.46
2023-04-09T04:21:59.239Z,101147.39
2023-04-09T04:24:32.948Z,101147.27
2023-04-09T04:27:08.183Z,101155.86
2023-04-09T04:29:42.400Z,101157.36
2023-04-09T04:32:30.259Z,101154.44
2023-04-09T04:35:05.375Z,101157.76
2023-04-09T04:37:40.649Z,101160.11
2023-04-09T04:40:15.028Z,101153.72
2023-04-09T04:42:48.730Z,101149.95
2023-04-09T04:45:22.684Z,101156.75
2023-04-09T04:48:04.893Z,101157.44
2023-04-09T04:50:38.649Z,101168.39
2023-04-09T04:53:14.904Z,101159.20
2023-04-09T04:55:53.476Z,101162.53
2023-04-09T04:58:30.974Z,101170.83
2023-04-09T05:01:05.362Z,101167.91
2023-04-09T05:03:39.600Z,101174.55
2023-04-09T05:06:29.961Z,101175.75
2023-04-09T05:09:03.770Z,101178.81
2023-04-09T05:11:44.527Z,101179.20
2023-04-09T05:14:22.606Z,101176.95
2023-04-09T05:16:56.583Z,101184.27
2023-04-09T05:19:33.496Z,101191.77
2023-04-09T05:22:08.314Z,101189.34
2023-04-09T05:24:41.750Z,101193.34
2023-04-09T05:27:15.681Z,101191.64
2023-04-09T05:29:49.943Z,101197.98
2023-04-09T05:32:24.047Z,101189.45
2023-04-09T05:34:57.547Z,101193.16
2023-04-09T05:37:31.860Z,101193.37
2023-04-09T05:40:05.720Z,101189.98
2023-04-09T05:42:39.462Z,101190.19
2023-04-09T05:45:19.531Z,101188.28
2023-04-09T05:47:56.027Z,101186.55
2023-04-09T05:50:29.877Z,101192.57
2023-04-09T05:53:03.703Z,101200.39
2023-04-09T05:55:43.598Z,101198.65
2023-04-09T05:58:17.562Z,101199.37
2023-04-09T06:00:51.890Z,101198.44
2023-04-09T06:03:26.320Z,101196.50
2023-04-09T06:06:00.401Z,101198.88
2023-04-09T06:08:34.408Z,101202.23
2023-04-09T06:11:12.326Z,101197.64
2023-04-09T06:13:45.704Z,101198.19
2023-04-09T06:16:19.231Z,101198.71
2023-04-09T06:18:54.798Z,101207.34
2023-04-09T06:21:28.462Z,101209.69
2023-04-09T06:24:01.637Z,101206.94
2023-04-09T06:26:35.190Z,101207.62
2023-04-09T06:29:08.941Z,101203.98
2023-04-09T06:31:42.689Z,101201.48
2023-04-09T06:34:15.667Z,101205.98
2023-04-09T06:36:48.921Z,101207.13
2023-04-09T06:39:22.316Z,101214.42
2023-04-09T06:41:55.786Z,101220.05
2023-04-09T06:44:45.081Z,101217.58
2023-04-09T06:47:18.685Z,101212.75
2023-04-09T06:49:52.361Z,101214.92
2023-04-09T06:52:25.770Z,101219.70
2023-04-09T06:54:59.143Z,101221.36
2023-04-09T06:57:32.810Z,101211.59
2023-04-09T07:00:06.912Z,101219.87
2023-04-09T07:02:40.647Z,101223.86
2023-04-09T07:05:14.666Z,101217.69
2023-04-09T07:07:47.956Z,101211.03
2023-04-09T07:10:21.894Z,101212.17
2023-04-09T07:12:55.528Z,101211.93
2023-04-09T07:15:29.572Z,101211.70
2023-04-09T07:18:03.050Z,101211.78
2023-04-09T07:20:36.281Z,101209.23
2023-04-09T07:23:09.685Z,101213.47
2023-04-09T07:25:43.920Z,101216.02
2023-04-09T07:28:17.368Z,101212.78
2023-04-09T07:30:51.096Z,101207.20
2023-04-09T07:33:25.723Z,101206.97
2023-04-09T07:35:59.540Z,101207.55
2023-04-09T07:38:33.532Z,101208.48
2023-04-09T07:41:07.037Z,101204.89
2023-04-09T07:43:40.399Z,101207.95
2023-04-09T07:46:19.877Z,101213.84
2023-04-09T07:48:53.460Z,101202.91
2023-04-09T07:51:28.242Z,101210.43
2023-04-09T07:54:01.332Z,101209.97
2023-04-09T07:56:34.879Z,101202.52
2023-04-09T07:59:08.275Z,101205.58
2023-04-09T08:01:42.155Z,101204.72
2023-04-09T08:04:16.012Z,101211.39
2023-04-09T08:06:50.900Z,101213.39
2023-04-09T08:09:25.129Z,101217.64
2023-04-09T08:11:58.941Z,101220.06
2023-04-09T08:14:32.595Z,101220.00
2023-04-09T08:17:06.001Z,101216.85
2023-04-09T08:19:41.789Z,101222.36
2023-04-09T08:22:15.806Z,101220.89
2023-04-09T08:24:54.576Z,101216.89
2023-04-09T08:27:28.121Z,101224.77
2023-04-09T08:30:02.755Z,101221.13
2023-04-09T08:32:36.595Z,101221.59
2023-04-09T08:35:11.854Z,101222.04
2023-04-09T08:37:45.460Z,101228.23
2023-04-09T08:40:19.593Z,101215.92
2023-04-09T08:42:58.448Z,101220.66
2023-04-09T08:45:31.954Z,101224.58
2023-04-09T08:48:07.063Z,101228.49
2023-04-09T08:50:40.436Z,101217.39
2023-04-09T08:53:15.173Z,101225.63
2023-04-09T08:55:50.161Z,101218.85
2023-04-09T08:58:23.696Z,101215.58
2023-04-09T09:00:57.410Z,101218.06
2023-04-09T09:03:30.917Z,101219.55
2023-04-09T09:06:04.389Z,101213.16
2023-04-09T09:08:37.659Z,101203.90
2023-04-09T09:11:11.385Z,101207.81
2023-04-09T09:13:44.780Z,101206.58
2023-04-09T09:16:18.700Z,101207.82
2023-04-09T09:18:53.384Z,101202.64
2023-04-09T09:21:29.510Z,101202.23
2023-04-09T09:24:02.864Z,101202.62
2023-04-09T09:26:42.239Z,101199.91
2023-04-09T09:29:15.797Z,101195.35
2023-04-09T09:31:53.277Z,101194.93
2023-04-09T09:34:27.784Z,101195.34
2023-04-09T09:37:00.860Z,101184.59
2023-04-09T09:39:46.237Z,101187.45
2023-04-09T09:42:19.836Z,101174.62
2023-04-09T09:44:54.805Z,101175.59
2023-04-09T09:47:31.530Z,101168.13
2023-04-09T09:50:05.077Z,101176.30
2023-04-09T09:52:40.092Z,101177.04
2023-04-09T09:55:17.461Z,101162.09
2023-04-09T09:57:53.358Z,101169.42
2023-04-09T10:00:27.878Z,101165.87
2023-04-09T10:03:07.495Z,101167.47
2023-04-09T10:05:42.146Z,101156.81
2023-04-09T10:08:16.495Z,101159.41
2023-04-09T10:10:50.763Z,101163.69
2023-04-09T10:13:32.672Z,101156.59
2023-04-09T10:16:07.625Z,101164.59
2023-04-09T10:18:42.936Z,101154.95
2023-04-09T10:21:27.183Z,101164.36
2023-04-09T10:24:05.769Z,101158.98
2023-04-09T10:26:41.803Z,101161.01
2023-04-09T10:29:16.885Z,101162.86
2023-04-09T10:31:53.122Z,101164.30
2023-04-09T10:34:29.605Z,101149.81
2023-04-09T10:37:02.910Z,101141.89
2023-04-09T10:39:40.564Z,101140.39
2023-04-09T10:42:19.763Z,101142.63
2023-04-09T10:45:09.224Z,101137.01
2023-04-09T10:47:44.108Z,101135.16
2023-04-09T10:50:26.791Z,101137.01
2023-04-09T10:53:02.216Z,101134.25
2023-04-09T10:55:38.465Z,101131.45
2023-04-09T10:58:13.951Z,101128.91
2023-04-09T11:00:49.205Z,101122.94
2023-04-09T11:03:30.812Z,101117.94
2023-04-09T11:06:09.550Z,101122.56
2023-04-09T11:08:46.399Z,101116.86
2023-04-09T11:11:19.722Z,101114.44
2023-04-09T11:13:53.111Z,101103.92
2023-04-09T11:16:29.258Z,101103.00
2023-04-09T11:19:03.211Z,101109.90
2023-04-09T11:21:36.608Z,101112.03
2023-04-09T11:24:10.923Z,101107.81
2023-04-09T11:26:44.438Z,101106.18
2023-04-09T11:29:18.303Z,101104.32
2023-04-09T11:31:51.727Z,101095.20
2023-04-09T11:34:28.683Z,101096.58
2023-04-09T11:37:07.600Z,101094.84
2023-04-09T11:39:42.658Z,101095.88
2023-04-09T11:42:19.102Z,101088.50
2023-04-09T11:44:52.336Z,101090.39
2023-04-09T11:47:27.569Z,101085.11
2023-04-09T11:50:02.071Z,101095.78
2023-04-09T11:52:36.232Z,101083.73
2023-04-09T11:55:11.175Z,101087.48
2023-04-09T11:57:47.047Z,101087.70
2023-04-09T12:00:21.363Z,101085.26
2023-04-09T12:03:00.930Z,101081.37
2023-04-09T12:05:36.366Z,101078.89
2023-04-09T12:08:11.638Z,101072.92
2023-04-09T12:10:45.743Z,101073.39
2023-04-09T12:13:19.298Z,101067.42
2023-04-09T12:15:53.969Z,101069.79
2023-04-09T12:18:28.412Z,101066.73
2023-04-09T12:21:02.983Z,101059.38
2023-04-09T12:23:36.779Z,101066.28
2023-04-09T12:26:10.159Z,101064.06
2023-04-09T12:28:43.425Z,101060.89
2023-04-09T12:31:16.661Z,101062.88
2023-04-09T12:33:50.134Z,101065.45
2023-04-09T12:36:24.075Z,101062.05
2023-04-09T12:38:57.426Z,101062.39
2023-04-09T12:41:31.627Z,101059.33
2023-04-09T12:44:07.486Z,101056.30
2023-04-09T12:46:40.859Z,101050.33
2023-04-09T12:49:14.856Z,101051.25
2023-04-09T12:51:48.053Z,101046.21
2023-04-09T12:54:21.810Z,101048.15
2023-04-09T12:56:55.276Z,101046.84
2023-04-09T12:59:29.072Z,101041.80
2023-04-09T13:02:02.693Z,101036.28
2023-04-09T13:04:36.496Z,101033.00
2023-04-09T13:07:09.760Z,101032.17
2023-04-09T13:09:43.409Z,101036.28
2023-04-09T13:12:17.096Z,101031.95
2023-04-09T13:14:51.252Z,101031.36
2023-04-09T13:17:24.675Z,101030.19
2023-04-09T13:19:58.215Z,101033.09
2023-04-09T13:22:31.640Z,101030.64
2023-04-09T13:25:06.029Z,101028.62
2023-04-09T13:27:39.210Z,101032.81
2023-04-09T13:30:14.221Z,101032.47
2023-04-09T13:32:48.079Z,101023.88
2023-04-09T13:35:22.477Z,101023.74
2023-04-09T13:37:55.995Z,101019.06
2023-04-09T13:40:29.262Z,101026.98
2023-04-09T13:43:02.867Z,101017.88
2023-04-09T13:45:36.609Z,101027.58
2023-04-09T13:48:12.279Z,101019.52
2023-04-09T13:50:47.620Z,101021.75
2023-04-09T13:53:24.004Z,101017.78
2023-04-09T13:55:57.408Z,101021.89
2023-04-09T13:58:30.659Z,101017.33
2023-04-09T14:01:04.731Z,101013.83
2023-04-09T14:03:42.166Z,101019.42
2023-04-09T14:06:15.700Z,101013.00
2023-04-09T14:08:48.890Z,101009.05
2023-04-09T14:11:22.286Z,101006.95
2023-04-09T14:13:56.137Z,101013.52
2023-04-09T14:16:30.750Z,100998.58
2023-04-09T14:19:04.336Z,101009.14
2023-04-09T14:21:37.914Z,101009.07
2023-04-09T14:24:11.158Z,101001.26
2023-04-09T14:26:44.702Z,101008.89
2023-04-09T14:29:18.669Z,101003.42
2023-04-09T14:31:53.522Z,101009.51
2023-04-09T14:34:28.140Z,101007.16
2023-04-09T14:37:01.428Z,100995.70
2023-04-09T14:39:34.823Z,101002.48
2023-04-09T14:42:08.352Z,101001.67
2023-04-09T14:44:42.666Z,100997.93
2023-04-09T14:47:16.245Z,100997.93
2023-04-09T14:49:49.613Z,101001.09
2023-04-09T14:52:23.590Z,100995.34
2023-04-09T14:54:56.825Z,100994.88
2023-04-09T14:57:30.162Z,100989.02
2023-04-09T15:00:04.298Z,100994.52
2023-04-09T15:02:38.859Z,100995.22
2023-04-09T15:05:14.769Z,100988.31
2023-04-09T15:07:48.040Z,100985.41
2023-04-09T15:10:23.337Z,100980.49
2023-04-09T15:12:57.080Z,100983.41
2023-04-09T15:15:31.589Z,100977.44
2023-04-09T15:18:06.454Z,100972.64
2023-04-09T15:20:43.642Z,100974.86
2023-04-09T15:23:17.494Z,100980.02
2023-04-09T15:25:52.125Z,100974.75
2023-04-09T15:28:25.645Z,100971.47
2023-04-09T15:30:59.579Z,100966.34
2023-04-09T15:33:33.862Z,100973.00
2023-04-09T15:36:08.778Z,100962.48
2023-04-09T15:38:42.414Z,100959.20
2023-04-09T15:41:17.218Z,100955.57
2023-04-09T15:43:51.958Z,100951.96
2023-04-09T15:46:26.371Z,100953.36
2023-04-09T15:49:00.023Z,100964.10
2023-04-09T15:51:33.414Z,100954.95
2023-04-09T15:54:07.448Z,100952.02
2023-04-09T15:56:41.288Z,100958.78
2023-04-09T15:59:16.522Z,100951.52
2023-04-09T16:01:50.000Z,100956.63
2023-04-09T16:04:24.484Z,100948.30
2023-04-09T16:06:57.858Z,100954.59
2023-04-09T16:09:31.239Z,100951.17
2023-04-09T16:12:04.837Z,100951.50
2023-04-09T16:14:39.455Z,100953.66
2023-04-09T16:17:12.684Z,100952.58
2023-04-09T16:19:46.246Z,100952.61
2023-04-09T16:22:19.401Z,100951.06
2023-04-09T16:24:53.104Z,100955.09
2023-04-09T16:27:26.946Z,100949.44
2023-04-09T16:30:01.320Z,100951.82
2023-04-09T16:32:34.878Z,100955.84
2023-04-09T16:35:09.890Z,100955.30
2023-04-09T16:37:43.695Z,100951.25
2023-04-09T16:40:20.783Z,100949.30
2023-04-09T16:42:55.101Z,100949.21
2023-04-09T16:45:29.016Z,100950.73
2023-04-09T16:48:02.503Z,100948.93
2023-04-09T16:50:36.562Z,100953.15
2023-04-09T16:53:10.280Z,100951.37
2023-04-09T16:55:45.058Z,100948.77
2023-04-09T16:58:18.630Z,100950.72
2023-04-09T17:00:52.362Z,100946.24
2023-04-09T17:03:26.437Z,100953.30
2023-04-09T17:06:00.258Z,100955.23
2023-04-09T17:08:33.546Z,100958.57
2023-04-09T17:11:07.451Z,100960.07
2023-04-09T17:13:40.844Z,100969.73
2023-04-09T17:16:15.658Z,100966.04
2023-04-09T17:18:49.069Z,100972.00
2023-04-09T17:21:22.275Z,100968.91
2023-04-09T17:23:56.267Z,100976.88
2023-04-09T17:26:30.075Z,100982.55
2023-04-09T17:29:03.201Z,100975.92
2023-04-09T17:31:36.683Z,100977.52
2023-04-09T17:34:11.133Z,100985.07
2023-04-09T17:36:47.127Z,100990.75
2023-04-09T17:39:20.554Z,100994.20
2023-04-09T17:41:58.822Z,101001.17
2023-04-09T17:44:35.348Z,100996.17
2023-04-09T17:47:09.111Z,101000.00
2023-04-09T17:49:42.921Z,101004.68
2023-04-09T17:52:16.490Z,101006.27
2023-04-09T17:54:50.935Z,101006.23
2023-04-09T17:57:24.745Z,101003.70
2023-04-09T17:59:58.552Z,101002.83
2023-04-09T18:02:32.676Z,101005.24
2023-04-09T18:05:07.711Z,101009.31
2023-04-09T18:07:41.392Z,101013.37
2023-04-09T18:10:15.686Z,101006.92
2023-04-09T18:12:49.405Z,101012.84
2023-04-09T18:15:25.065Z,101019.94
2023-04-09T18:17:58.557Z,101020.88
2023-04-09T18:20:33.865Z,101019.98
2023-04-09T18:23:07.503Z,101026.27
2023-04-09T18:25:40.731Z,101020.85
2023-04-09T18:28:14.284Z,101024.09
2023-04-09T18:30:47.755Z,101027.30
2023-04-09T18:33:21.451Z,101022.72
2023-04-09T18:35:55.149Z,101025.12
2023-04-09T18:38:30.180Z,101027.72
2023-04-09T18:41:04.990Z,101015.33
2023-04-09T18:43:41.138Z,101021.86
2023-04-09T18:46:14.734Z,101014.62
2023-04-09T18:48:48.537Z,101027.65
2023-04-09T18:51:22.208Z,101031.86
2023-04-09T18:53:56.102Z,101030.77
2023-04-09T18:56:30.533Z,101026.19
2023-04-09T18:59:03.858Z,101031.23
2023-04-09T19:01:37.915Z,101026.64
2023-04-09T19:04:11.302Z,101027.37
2023-04-09T19:06:46.329Z,101025.44
2023-04-09T19:09:20.479Z,101024.32
2023-04-09T19:11:54.344Z,101025.05
2023-04-09T19:14:27.888Z,101029.23
2023-04-09T19:17:02.718Z,101029.14
2023-04-09T19:19:36.315Z,101021.02
2023-04-09T19:22:09.916Z,101023.39
2023-04-09T19:24:44.607Z,101027.77
2023-04-09T19:27:19.160Z,101028.48
2023-04-09T19:29:53.376Z,101028.20
2023-04-09T19:32:26.904Z,101023.59
2023-04-09T19:35:00.255Z,101020.84
2023-04-09T19:37:33.291Z,101025.01
2023-04-09T19:40:08.546Z,101017.95
2023-04-09T19:42:42.198Z,101020.30
2023-04-09T19:45:16.015Z,101017.70
2023-04-09T19:47:49.629Z,101016.56
2023-04-09T19:50:22.798Z,101015.61
2023-04-09T19:52:58.961Z,101016.30
2023-04-09T19:55:32.583Z,101018.66
2023-04-09T19:58:06.945Z,101013.89
2023-04-09T20:00:40.223Z,101017.23
2023-04-09T20:03:13.883Z,101012.63
2023-04-09T20:05:49.305Z,101013.78
2023-04-09T20:08:22.751Z,101013.66
2023-04-09T20:10:56.156Z,101013.16
2023-04-09T20:13:29.682Z,101013.69
2023-04-09T20:16:03.090Z,101015.84
2023-04-09T20:18:36.879Z,101016.53
2023-04-09T20:21:14.565Z,101013.56
2023-04-09T20:23:47.968Z,101007.95
2023-04-09T20:26:21.377Z,101006.82
2023-04-09T20:28:55.160Z,101014.12
2023-04-09T20:31:29.230Z,101008.66
2023-04-09T20:34:03.094Z,101013.48
2023-04-09T20:36:37.835Z,101008.52
2023-04-09T20:39:11.404Z,101004.70
2023-04-09T20:41:45.029Z,101005.23
2023-04-09T20:44:18.476Z,101006.56
2023-04-09T20:46:52.655Z,101004.40
2023-04-09T20:49:26.034Z,101009.04
2023-04-09T20:51:59.612Z,101012.98
2023-04-09T20:54:33.228Z,101010.67
2023-04-09T20:57:07.024Z,101005.71
2023-04-09T20:59:40.934Z,101005.38
2023-04-09T21:02:15.769Z,101007.56
2023-04-09T21:04:49.451Z,101002.59
2023-04-09T21:07:23.048Z,101005.39
2023-04-09T21:09:56.648Z,101001.42
2023-04-09T21:12:30.212Z,101007.05
2023-04-09T21:15:03.309Z,101013.52
2023-04-09T21:17:37.085Z,101012.02
2023-04-09T21:20:13.185Z,101007.05
2023-04-09T21:22:46.073Z,101015.32
2023-04-09T21:25:19.686Z,101004.25
2023-04-09T21:27:53.147Z,101009.87
2023-04-09T21:30:26.681Z,101005.72
2023-04-09T21:33:01.500Z,101009.54
2023-04-09T21:35:36.080Z,101004.72
2023-04-09T21:38:09.379Z,101010.34
2023-04-09T21:40:42.516Z,101009.83
2023-04-09T21:43:17.144Z,101011.98
2023-04-09T21:45:51.211Z,101010.66
2023-04-09T21:48:24.814Z,101011.98
2023-04-09T21:50:58.498Z,101017.74
2023-04-09T21:53:33.667Z,101012.77
2023-04-09T21:56:07.692Z,101010.63
2023-04-09T21:58:41.407Z,101010.95
2023-04-09T22:01:26.291Z,101018.38
2023-04-09T22:04:03.761Z,101014.39
2023-04-09T22:06:37.279Z,101012.06
2023-04-09T22:09:10.589Z,101009.92
2023-04-09T22:11:44.140Z,101008.41
2023-04-09T22:14:18.150Z,101008.73
2023-04-09T22:16:51.349Z,101009.05
2023-04-09T22:19:24.760Z,101006.90
2023-04-09T22:21:58.799Z,101014.31
2023-04-09T22:24:32.346Z,101014.62
2023-04-09T22:27:06.067Z,101017.59
2023-04-09T22:29:39.546Z,101021.54
2023-04-09T22:32:13.747Z,101021.86
2023-04-09T22:34:47.064Z,101017.88
2023-04-09T22:37:20.184Z,101025.30
2023-04-09T22:39:53.732Z,101016.84
2023-04-09T22:42:27.554Z,101017.16
2023-04-09T22:45:01.339Z,101014.83
2023-04-09T22:47:35.976Z,101008.20
2023-04-09T22:50:13.627Z,101010.35
2023-04-09T22:52:46.863Z,101012.32
2023-04-09T22:55:21.863Z,101009.99
2023-04-09T22:57:55.160Z,101009.32
2023-04-09T23:00:29.296Z,101015.91
2023-04-09T23:03:03.721Z,101009.10
2023-04-09T23:05:37.721Z,101014.70
2023-04-09T23:08:11.702Z,101012.37
2023-04-09T23:10:45.113Z,101014.33
2023-04-09T23:13:18.511Z,101008.38
2023-04-09T23:15:52.136Z,101006.05
2023-04-09T23:18:26.327Z,101005.55
2023-04-09T23:20:59.713Z,100999.73
2023-04-09T23:23:33.519Z,101003.52
2023-04-09T23:26:08.555Z,101002.00
2023-04-09T23:28:41.795Z,100998.86
2023-04-09T23:31:15.171Z,100994.88
2023-04-09T23:33:49.221Z,100991.55
2023-04-09T23:36:24.325Z,100997.14
2023-04-09T23:38:57.620Z,100996.47
2023-04-09T23:41:31.380Z,100990.66
2023-04-09T23:44:04.773Z,100982.36
2023-04-09T23:46:38.464Z,100978.06
2023-04-09T23:49:12.788Z,100984.50
2023-04-09T23:51:46.595Z,100972.42
2023-04-09T23:54:20.265Z,100979.66
2023-04-09T23:56:53.584Z,100975.53
2023-04-09T23:59:27.858Z,100974.86
